Time;durP1;ratioP1;P1;durP2;ratioP2;P2;SDS_P1;SDS_P2;PMS_P1;PMS_P2;Temp;Humidity;BMP_temperature;BMP_pressure;BME280_temperature;BME280_humidity;BME280_pressure;Samples;Min_cycle;Max_cycle;Signal;HPM_P1;HPM_P2
2022/04/28 00:00:36;;;;;;;13.30;1.90;;;;;;;;;;5060627;28;20028;-44
2022/04/28 00:03:03;;;;;;;12.00;2.28;;;;;;;;;;5060524;28;20032;-41
2022/04/28 00:05:30;;;;;;;13.88;2.95;;;;;;;;;;5060079;28;20028;-40
2022/04/28 00:07:57;;;;;;;14.30;2.35;;;;;;;;;;5067999;28;20643;-40
2022/04/28 00:10:24;;;;;;;12.57;2.13;;;;;;;;;;5066921;28;20127;-41
2022/04/28 00:12:52;;;;;;;8.35;1.70;;;;;;;;;;5069789;28;20040;-41
2022/04/28 00:15:19;;;;;;;8.23;1.70;;;;;;;;;;5059971;28;20056;-41
2022/04/28 00:17:46;;;;;;;12.60;2.00;;;;;;;;;;5060091;28;20024;-41
2022/04/28 00:20:13;;;;;;;10.18;1.92;;;;;;;;;;5059735;28;20544;-41
2022/04/28 00:22:40;;;;;;;6.65;1.80;;;;;;;;;;5060613;28;20024;-40
2022/04/28 00:25:08;;;;;;;10.82;1.60;;;;;;;;;;5063006;28;20124;-40
2022/04/28 00:27:35;;;;;;;11.55;2.03;;;;;;;;;;5040452;28;20036;-42
2022/04/28 00:30:02;;;;;;;13.02;1.73;;;;;;;;;;5061682;28;20040;-39
2022/04/28 00:32:30;;;;;;;30.05;2.60;;;;;;;;;;5058755;28;20029;-39
2022/04/28 00:34:57;;;;;;;12.80;2.00;;;;;;;;;;5036218;28;20389;-40
2022/04/28 00:37:24;;;;;;;17.05;1.77;;;;;;;;;;5053930;28;20119;-40
2022/04/28 00:39:51;;;;;;;11.88;1.50;;;;;;;;;;5065036;28;20024;-40
2022/04/28 00:42:20;;;;;;;7.13;1.88;;;;;;;;;;5064830;28;20083;-40
2022/04/28 00:44:47;;;;;;;10.82;1.65;;;;;;;;;;5042435;28;20119;-39
2022/04/28 00:47:15;;;;;;;10.85;1.63;;;;;;;;;;5054502;28;20029;-39
2022/04/28 00:52:29;;;;;;;6.63;1.42;;;;;;;;;;5056046;28;20481;-40
2022/04/28 00:54:57;;;;;;;6.72;1.70;;;;;;;;;;5058841;28;20025;-41
2022/04/28 00:57:24;;;;;;;8.73;1.83;;;;;;;;;;5061362;28;20142;-39
2022/04/28 00:59:51;;;;;;;6.28;1.90;;;;;;;;;;5048775;28;20442;-41
2022/04/28 01:02:19;;;;;;;12.80;1.70;;;;;;;;;;5063164;28;20021;-40
2022/04/28 01:04:47;;;;;;;11.75;2.60;;;;;;;;;;5062478;28;20585;-38
2022/04/28 01:07:14;;;;;;;9.32;1.80;;;;;;;;;;5063858;28;20039;-40
2022/04/28 01:09:41;;;;;;;9.30;2.00;;;;;;;;;;5061268;28;20021;-39
2022/04/28 01:12:14;;;;;;;9.55;2.53;;;;;;;;;;5057481;28;20465;-40
2022/04/28 01:14:42;;;;;;;19.13;3.10;;;;;;;;;;5058831;28;20037;-40
2022/04/28 01:17:09;;;;;;;23.30;5.65;;;;;;;;;;5063827;28;20479;-41
2022/04/28 01:19:36;;;;;;;76.70;14.63;;;;;;;;;;5038239;28;20139;-41
2022/04/28 01:22:04;;;;;;;68.82;17.33;;;;;;;;;;5053987;28;20509;-40
2022/04/28 01:24:31;;;;;;;56.33;15.63;;;;;;;;;;5037350;28;20136;-39
2022/04/28 01:27:00;;;;;;;98.70;27.33;;;;;;;;;;5033815;28;20037;-40
2022/04/28 01:29:27;;;;;;;111.38;31.77;;;;;;;;;;5051894;28;20024;-40
2022/04/28 01:31:54;;;;;;;114.00;34.58;;;;;;;;;;5051041;28;20479;-40
2022/04/28 01:34:21;;;;;;;118.28;34.92;;;;;;;;;;5051183;28;20064;-40
2022/04/28 01:36:48;;;;;;;103.25;35.80;;;;;;;;;;5051539;28;20028;-40
2022/04/28 01:39:15;;;;;;;117.80;34.70;;;;;;;;;;5052379;28;20039;-40
2022/04/28 01:41:42;;;;;;;113.28;34.35;;;;;;;;;;5058933;28;20496;-40
2022/04/28 01:44:10;;;;;;;98.05;31.75;;;;;;;;;;5070572;28;20039;-40
2022/04/28 01:46:37;;;;;;;109.43;32.83;;;;;;;;;;5071934;28;20039;-40
2022/04/28 01:49:04;;;;;;;88.35;31.00;;;;;;;;;;5071329;28;20032;-40
2022/04/28 01:57:01;;;;;;;98.65;27.52;;;;;;;;;;5061123;28;20060;-41
2022/04/28 01:59:28;;;;;;;96.72;27.15;;;;;;;;;;5060661;28;20097;-52
2022/04/28 02:01:55;;;;;;;83.20;25.42;;;;;;;;;;5059477;28;20501;-42
2022/04/28 02:04:22;;;;;;;86.07;26.67;;;;;;;;;;5057435;28;20082;-42
2022/04/28 02:06:49;;;;;;;82.13;26.10;;;;;;;;;;5056063;28;20454;-42
2022/04/28 02:09:16;;;;;;;70.88;25.02;;;;;;;;;;5042675;28;20078;-42
2022/04/28 02:11:43;;;;;;;72.38;24.60;;;;;;;;;;5060412;28;20833;-41
2022/04/28 02:14:10;;;;;;;77.97;24.73;;;;;;;;;;5062623;28;20028;-42
2022/04/28 02:16:37;;;;;;;72.45;24.08;;;;;;;;;;5061848;28;20125;-42
2022/04/28 02:19:04;;;;;;;69.43;23.95;;;;;;;;;;5059317;28;20017;-41
2022/04/28 02:21:30;;;;;;;72.85;25.95;;;;;;;;;;5059545;28;20045;-41
2022/04/28 02:23:57;;;;;;;76.00;24.95;;;;;;;;;;5060652;28;20024;-42
2022/04/28 02:26:24;;;;;;;72.22;24.02;;;;;;;;;;5056183;28;20025;-41
2022/04/28 02:28:51;;;;;;;67.22;22.27;;;;;;;;;;5051231;28;20486;-41
2022/04/28 02:31:18;;;;;;;69.82;21.73;;;;;;;;;;5050777;28;20104;-42
2022/04/28 02:33:46;;;;;;;67.18;22.15;;;;;;;;;;5059220;28;20060;-41
2022/04/28 02:36:16;;;;;;;59.63;20.90;;;;;;;;;;5069519;28;20125;-41
2022/04/28 02:38:43;;;;;;;66.57;20.77;;;;;;;;;;5069577;28;20178;-42
2022/04/28 02:41:10;;;;;;;60.85;22.05;;;;;;;;;;5070768;28;20478;-41
2022/04/28 02:43:37;;;;;;;53.33;19.65;;;;;;;;;;5071111;28;20044;-42
2022/04/28 02:46:04;;;;;;;60.38;21.02;;;;;;;;;;5071389;28;20116;-41
2022/04/28 02:48:31;;;;;;;58.40;19.70;;;;;;;;;;5071049;28;20131;-42
2022/04/28 02:50:58;;;;;;;57.60;19.10;;;;;;;;;;5070762;28;20466;-42
2022/04/28 02:53:25;;;;;;;58.60;20.85;;;;;;;;;;5074283;28;20043;-42
2022/04/28 02:55:52;;;;;;;50.85;18.83;;;;;;;;;;5064279;28;20043;-42
2022/04/28 02:58:19;;;;;;;52.78;17.98;;;;;;;;;;5073291;28;20082;-42
2022/04/28 03:00:46;;;;;;;57.13;18.65;;;;;;;;;;5074753;28;20036;-41
2022/04/28 03:03:13;;;;;;;51.00;16.95;;;;;;;;;;5075588;28;20048;-41
2022/04/28 03:11:11;;;;;;;48.67;18.17;;;;;;;;;;5074927;28;20042;-42
2022/04/28 03:13:39;;;;;;;52.15;16.50;;;;;;;;;;5075086;28;20036;-42
2022/04/28 03:16:06;;;;;;;44.70;16.42;;;;;;;;;;5074996;28;20024;-41
2022/04/28 03:18:33;;;;;;;48.60;15.70;;;;;;;;;;5075541;28;20029;-41
2022/04/28 03:21:00;;;;;;;49.95;15.80;;;;;;;;;;5074209;28;20033;-41
2022/04/28 03:23:27;;;;;;;46.47;15.80;;;;;;;;;;5057524;28;20037;-41
2022/04/28 03:25:54;;;;;;;44.38;15.57;;;;;;;;;;5075041;28;20020;-41
2022/04/28 03:28:21;;;;;;;45.45;15.25;;;;;;;;;;5074779;28;20119;-41
2022/04/28 03:30:49;;;;;;;46.28;15.23;;;;;;;;;;5075149;28;20450;-41
2022/04/28 03:33:16;;;;;;;40.95;15.38;;;;;;;;;;5073890;28;20052;-41
2022/04/28 03:35:43;;;;;;;43.95;14.30;;;;;;;;;;5074501;28;20119;-42
2022/04/28 03:38:11;;;;;;;41.22;13.63;;;;;;;;;;5075155;28;20025;-41
2022/04/28 03:40:39;;;;;;;45.10;14.75;;;;;;;;;;5074876;28;20040;-41
2022/04/28 03:43:06;;;;;;;34.88;13.27;;;;;;;;;;5074158;28;20024;-41
2022/04/28 03:45:36;;;;;;;42.22;14.25;;;;;;;;;;5074455;28;20166;-41
2022/04/28 03:48:04;;;;;;;36.78;12.65;;;;;;;;;;5074647;28;20646;-41
2022/04/28 03:50:32;;;;;;;37.13;13.48;;;;;;;;;;5079428;28;20055;-41
2022/04/28 03:52:59;;;;;;;40.38;13.30;;;;;;;;;;5094939;28;20039;-41
2022/04/28 03:55:26;;;;;;;42.25;12.98;;;;;;;;;;5094109;28;20388;-42
2022/04/28 03:57:53;;;;;;;37.70;13.13;;;;;;;;;;5094489;28;20032;-42
2022/04/28 04:00:20;;;;;;;33.53;12.25;;;;;;;;;;5094339;28;20032;-41
2022/04/28 04:02:48;;;;;;;33.17;12.32;;;;;;;;;;5094284;28;20419;-42
2022/04/28 04:05:15;;;;;;;36.15;12.15;;;;;;;;;;5094470;28;20028;-41
2022/04/28 04:07:43;;;;;;;32.90;11.90;;;;;;;;;;5094188;28;20032;-42
2022/04/28 04:10:10;;;;;;;32.50;11.20;;;;;;;;;;5094055;28;20039;-42
2022/04/28 04:12:38;;;;;;;33.90;11.73;;;;;;;;;;5094287;28;20032;-42
2022/04/28 04:15:06;;;;;;;36.30;12.02;;;;;;;;;;5094626;28;20047;-42
2022/04/28 04:17:43;;;;;;;28.63;10.63;;;;;;;;;;5093840;28;20028;-41
2022/04/28 04:20:10;;;;;;;28.80;10.98;;;;;;;;;;5076153;28;20027;-42
2022/04/28 04:22:37;;;;;;;33.47;11.45;;;;;;;;;;5075016;28;20036;-41
2022/04/28 04:25:04;;;;;;;29.52;11.00;;;;;;;;;;5094255;28;20040;-42
2022/04/28 04:27:31;;;;;;;32.63;10.25;;;;;;;;;;5093678;28;20032;-42
2022/04/28 04:29:58;;;;;;;29.85;10.13;;;;;;;;;;5093096;28;20794;-41
2022/04/28 04:32:25;;;;;;;26.25;9.77;;;;;;;;;;5094013;28;20028;-41
2022/04/28 04:34:53;;;;;;;31.30;10.10;;;;;;;;;;5093863;28;20028;-41
2022/04/28 04:37:21;;;;;;;27.35;9.90;;;;;;;;;;5093586;28;20024;-41
2022/04/28 04:39:48;;;;;;;25.73;9.93;;;;;;;;;;5092920;28;20031;-41
2022/04/28 04:42:16;;;;;;;30.35;10.43;;;;;;;;;;5095193;28;20478;-43
2022/04/28 04:44:42;;;;;;;25.08;10.00;;;;;;;;;;5095644;28;20595;-42
2022/04/28 04:47:09;;;;;;;27.67;8.93;;;;;;;;;;5094938;28;20470;-42
2022/04/28 04:49:36;;;;;;;20.65;8.70;;;;;;;;;;5093746;28;20123;-42
2022/04/28 04:52:04;;;;;;;23.88;9.15;;;;;;;;;;5093882;28;20431;-42
2022/04/28 04:54:31;;;;;;;22.88;8.40;;;;;;;;;;5093901;28;20031;-41
2022/04/28 04:56:57;;;;;;;21.80;8.50;;;;;;;;;;5093479;28;20128;-42
2022/04/28 04:59:24;;;;;;;24.67;8.93;;;;;;;;;;5093294;28;20116;-42
2022/04/28 05:01:51;;;;;;;26.05;9.27;;;;;;;;;;5093665;28;20036;-42
2022/04/28 05:04:18;;;;;;;22.73;9.05;;;;;;;;;;5093355;28;20059;-42
2022/04/28 05:06:45;;;;;;;22.80;8.30;;;;;;;;;;5093556;28;20546;-42
2022/04/28 05:09:12;;;;;;;24.58;8.60;;;;;;;;;;5093107;28;20032;-42
2022/04/28 05:11:39;;;;;;;22.67;8.27;;;;;;;;;;5093602;28;20191;-41
2022/04/28 05:14:06;;;;;;;24.33;8.90;;;;;;;;;;5093542;28;20077;-42
2022/04/28 05:16:33;;;;;;;20.15;7.63;;;;;;;;;;5092667;28;20020;-41
2022/04/28 05:19:01;;;;;;;18.23;7.50;;;;;;;;;;5092889;28;20026;-42
2022/04/28 05:21:27;;;;;;;20.13;7.43;;;;;;;;;;5093460;28;20537;-41
2022/04/28 05:23:55;;;;;;;18.45;7.43;;;;;;;;;;5092728;28;20028;-42
2022/04/28 05:26:21;;;;;;;19.45;7.80;;;;;;;;;;5093614;28;20031;-41
2022/04/28 05:28:48;;;;;;;21.45;7.05;;;;;;;;;;5093104;28;20039;-41
2022/04/28 05:31:15;;;;;;;19.70;7.72;;;;;;;;;;5092826;28;20431;-42
2022/04/28 05:33:42;;;;;;;19.33;7.47;;;;;;;;;;5090520;28;20082;-42
2022/04/28 05:36:13;;;;;;;14.57;6.15;;;;;;;;;;5092629;28;20852;-41
2022/04/28 05:38:41;;;;;;;15.30;6.20;;;;;;;;;;5093203;28;20107;-41
2022/04/28 05:41:08;;;;;;;15.43;6.65;;;;;;;;;;5092704;28;20070;-42
2022/04/28 05:46:20;;;;;;;16.15;5.80;;;;;;;;;;5092860;28;20042;-41
2022/04/28 05:48:47;;;;;;;15.88;6.07;;;;;;;;;;5092949;28;20040;-41
2022/04/28 05:51:14;;;;;;;15.95;5.82;;;;;;;;;;5092038;28;20023;-41
2022/04/28 05:53:41;;;;;;;15.23;6.10;;;;;;;;;;5093011;28;20042;-42
2022/04/28 05:56:08;;;;;;;14.13;5.30;;;;;;;;;;5092716;28;20020;-41
2022/04/28 05:58:35;;;;;;;13.13;5.63;;;;;;;;;;5092242;28;20032;-41
2022/04/28 06:01:02;;;;;;;16.70;6.22;;;;;;;;;;5092379;28;20036;-41
2022/04/28 06:03:29;;;;;;;15.07;5.88;;;;;;;;;;5092257;28;20085;-42
2022/04/28 06:05:56;;;;;;;15.93;5.80;;;;;;;;;;5092795;28;20028;-41
2022/04/28 06:08:23;;;;;;;13.80;5.15;;;;;;;;;;5092348;28;20039;-41
2022/04/28 06:10:50;;;;;;;12.82;5.03;;;;;;;;;;5092309;28;20032;-41
2022/04/28 06:13:17;;;;;;;12.38;5.13;;;;;;;;;;5092758;28;20028;-41
2022/04/28 06:15:44;;;;;;;10.93;5.03;;;;;;;;;;5091703;28;20107;-42
2022/04/28 06:18:11;;;;;;;13.82;5.00;;;;;;;;;;5092591;28;20394;-42
2022/04/28 06:20:38;;;;;;;12.35;4.60;;;;;;;;;;5091862;28;20454;-41
2022/04/28 06:23:05;;;;;;;11.80;4.97;;;;;;;;;;5091702;28;20397;-41
2022/04/28 06:25:32;;;;;;;12.32;4.50;;;;;;;;;;5092334;28;20102;-41
2022/04/28 06:27:59;;;;;;;11.02;4.55;;;;;;;;;;5091944;28;20032;-41
2022/04/28 06:30:26;;;;;;;11.90;4.97;;;;;;;;;;5091496;28;20036;-42
2022/04/28 06:36:09;;;;;;;10.05;4.68;;;;;;;;;;5012215;28;20060;-45
2022/04/28 06:38:36;;;;;;;13.35;5.15;;;;;;;;;;5012400;28;20026;-45
2022/04/28 06:41:03;;;;;;;12.63;4.93;;;;;;;;;;5011549;28;20034;-52
2022/04/28 06:43:32;;;;;;;12.57;4.40;;;;;;;;;;5011852;28;20084;-45
2022/04/28 06:46:14;;;;;;;10.43;4.15;;;;;;;;;;5012060;28;20045;-45
2022/04/28 06:48:41;;;;;;;9.05;3.90;;;;;;;;;;5012379;28;20582;-47
2022/04/28 06:51:08;;;;;;;11.02;4.38;;;;;;;;;;5011564;28;20085;-48
2022/04/28 06:53:35;;;;;;;10.63;4.15;;;;;;;;;;5012107;28;20033;-47
2022/04/28 06:56:02;;;;;;;10.38;4.32;;;;;;;;;;5011663;28;20108;-46
2022/04/28 06:58:29;;;;;;;9.07;4.05;;;;;;;;;;5012034;28;20088;-46
2022/04/28 07:00:57;;;;;;;9.95;4.03;;;;;;;;;;5011931;28;20038;-46
2022/04/28 07:03:25;;;;;;;9.77;4.15;;;;;;;;;;5011864;28;20044;-46
2022/04/28 07:05:53;;;;;;;13.77;4.30;;;;;;;;;;5011346;28;20065;-47
2022/04/28 07:08:20;;;;;;;8.70;4.10;;;;;;;;;;5011500;28;20088;-47
2022/04/28 07:10:47;;;;;;;13.10;4.40;;;;;;;;;;5011840;28;20034;-46
2022/04/28 07:13:14;;;;;;;6.65;3.53;;;;;;;;;;5011567;28;20026;-47
2022/04/28 07:15:41;;;;;;;8.05;4.30;;;;;;;;;;5012035;28;20056;-47
2022/04/28 07:18:09;;;;;;;9.75;4.13;;;;;;;;;;5011340;28;20120;-46
2022/04/28 07:20:36;;;;;;;8.27;3.65;;;;;;;;;;5011727;28;20042;-47
2022/04/28 07:23:03;;;;;;;8.98;3.70;;;;;;;;;;5011496;28;20044;-48
2022/04/28 07:25:31;;;;;;;7.05;3.55;;;;;;;;;;5011987;28;20030;-47
2022/04/28 07:27:58;;;;;;;8.95;4.10;;;;;;;;;;5011455;28;20430;-47
2022/04/28 07:30:26;;;;;;;8.90;3.65;;;;;;;;;;4993965;28;20407;-47
2022/04/28 07:32:53;;;;;;;9.30;3.90;;;;;;;;;;5011131;28;20050;-47
2022/04/28 07:35:21;;;;;;;8.60;3.60;;;;;;;;;;5011260;28;20110;-46
2022/04/28 07:37:48;;;;;;;8.82;3.25;;;;;;;;;;5011696;28;20399;-47
2022/04/28 07:40:15;;;;;;;9.27;3.78;;;;;;;;;;5014771;28;20030;-47
2022/04/28 07:42:42;;;;;;;6.13;3.03;;;;;;;;;;5015102;28;20065;-47
2022/04/28 07:45:09;;;;;;;7.28;3.53;;;;;;;;;;5014651;28;20034;-47
2022/04/28 07:47:36;;;;;;;7.95;3.03;;;;;;;;;;5014604;28;20042;-48
2022/04/28 07:50:04;;;;;;;8.02;3.72;;;;;;;;;;5014978;28;20423;-47
2022/04/28 07:52:31;;;;;;;7.22;3.88;;;;;;;;;;4997003;28;20483;-47
2022/04/28 07:54:58;;;;;;;5.63;3.25;;;;;;;;;;5014474;28;20066;-47
2022/04/28 07:57:25;;;;;;;7.78;3.28;;;;;;;;;;5014559;28;20100;-48
2022/04/28 07:59:52;;;;;;;5.80;2.95;;;;;;;;;;5014485;28;20058;-45
2022/04/28 08:02:18;;;;;;;7.28;3.38;;;;;;;;;;5014769;28;20049;-46
2022/04/28 08:04:45;;;;;;;7.78;2.90;;;;;;;;;;5014718;28;20117;-45
2022/04/28 08:07:13;;;;;;;5.65;2.65;;;;;;;;;;5014734;28;20096;-46
2022/04/28 08:09:40;;;;;;;9.90;3.40;;;;;;;;;;5014317;28;20022;-45
2022/04/28 08:12:07;;;;;;;6.45;3.13;;;;;;;;;;5014232;28;20084;-46
2022/04/28 08:14:34;;;;;;;5.78;2.95;;;;;;;;;;5014603;28;20052;-47
2022/04/28 08:17:01;;;;;;;4.70;2.40;;;;;;;;;;5014538;28;20392;-47
2022/04/28 08:19:28;;;;;;;7.30;2.85;;;;;;;;;;5013978;28;20021;-47
2022/04/28 08:21:55;;;;;;;5.05;2.65;;;;;;;;;;5013923;28;20041;-47
2022/04/28 08:24:22;;;;;;;4.55;2.40;;;;;;;;;;5014274;28;20030;-46
2022/04/28 08:26:49;;;;;;;8.20;3.22;;;;;;;;;;5014481;28;20495;-47
2022/04/28 08:29:16;;;;;;;5.18;2.70;;;;;;;;;;5013592;28;20667;-48
2022/04/28 08:31:44;;;;;;;7.45;3.10;;;;;;;;;;5013604;28;20054;-46
2022/04/28 08:34:12;;;;;;;5.10;2.83;;;;;;;;;;5014049;28;20530;-47
2022/04/28 08:36:39;;;;;;;5.35;2.33;;;;;;;;;;5014011;28;20030;-47
2022/04/28 08:39:06;;;;;;;6.65;2.78;;;;;;;;;;5014139;28;20026;-47
2022/04/28 08:41:42;;;;;;;5.53;2.50;;;;;;;;;;5013212;28;20030;-47
2022/04/28 08:44:15;;;;;;;4.53;2.58;;;;;;;;;;5014011;28;20083;-47
2022/04/28 08:46:50;;;;;;;5.43;2.47;;;;;;;;;;5013726;28;20034;-46
2022/04/28 08:49:28;;;;;;;5.47;2.30;;;;;;;;;;5013836;28;20514;-46
2022/04/28 08:51:59;;;;;;;4.93;2.30;;;;;;;;;;5013536;28;20026;-47
2022/04/28 08:54:27;;;;;;;4.93;2.65;;;;;;;;;;5013549;28;20045;-46
2022/04/28 08:56:54;;;;;;;6.95;2.70;;;;;;;;;;5013507;28;20133;-46
2022/04/28 08:59:22;;;;;;;5.13;2.30;;;;;;;;;;5013389;28;20030;-46
2022/04/28 09:01:50;;;;;;;5.43;2.50;;;;;;;;;;5013288;28;20041;-46
2022/04/28 09:04:17;;;;;;;5.18;2.50;;;;;;;;;;5013528;28;20033;-46
2022/04/28 09:06:45;;;;;;;5.18;2.50;;;;;;;;;;5013142;28;20030;-46
2022/04/28 09:09:13;;;;;;;5.22;2.20;;;;;;;;;;5013265;28;20041;-46
2022/04/28 09:11:41;;;;;;;4.15;2.17;;;;;;;;;;5013185;28;20033;-46
2022/04/28 09:14:09;;;;;;;5.18;2.30;;;;;;;;;;5013288;28;20037;-48
2022/04/28 09:16:37;;;;;;;5.47;2.58;;;;;;;;;;5012727;28;20400;-46
2022/04/28 09:19:03;;;;;;;4.82;2.15;;;;;;;;;;5013107;28;20357;-46
2022/04/28 09:21:34;;;;;;;5.13;2.63;;;;;;;;;;5013311;28;20045;-46
2022/04/28 09:24:02;;;;;;;5.35;2.22;;;;;;;;;;5013329;28;20038;-46
2022/04/28 09:26:30;;;;;;;5.30;2.33;;;;;;;;;;5012624;28;20507;-46
2022/04/28 09:29:02;;;;;;;3.33;1.92;;;;;;;;;;5012780;28;20032;-48
2022/04/28 09:31:34;;;;;;;4.30;2.10;;;;;;;;;;5012915;28;20030;-46
2022/04/28 09:34:05;;;;;;;4.28;2.30;;;;;;;;;;5013245;28;20030;-46
2022/04/28 09:36:32;;;;;;;5.03;1.85;;;;;;;;;;4994967;28;20038;-46
2022/04/28 09:38:59;;;;;;;3.72;1.88;;;;;;;;;;5012958;28;20096;-46
2022/04/28 09:44:12;;;;;;;4.75;2.05;;;;;;;;;;5012729;28;20096;-47
2022/04/28 09:46:43;;;;;;;3.65;1.77;;;;;;;;;;5012687;28;20061;-46
2022/04/28 09:49:11;;;;;;;3.92;1.98;;;;;;;;;;5012647;28;20495;-46
2022/04/28 09:51:39;;;;;;;3.47;1.80;;;;;;;;;;5012673;28;20084;-46
2022/04/28 09:54:10;;;;;;;5.18;2.10;;;;;;;;;;5012054;28;20030;-46
2022/04/28 09:56:38;;;;;;;3.10;1.67;;;;;;;;;;5013020;28;20093;-47
2022/04/28 09:59:09;;;;;;;3.58;1.80;;;;;;;;;;4994586;28;20040;-46
2022/04/28 10:01:37;;;;;;;3.97;1.75;;;;;;;;;;5011923;28;20050;-46
2022/04/28 10:04:07;;;;;;;3.67;1.90;;;;;;;;;;5012606;28;20041;-46
2022/04/28 10:06:35;;;;;;;3.88;1.80;;;;;;;;;;5012037;28;20507;-46
2022/04/28 10:09:09;;;;;;;3.63;1.80;;;;;;;;;;5012109;28;20034;-46
2022/04/28 10:11:40;;;;;;;3.20;1.65;;;;;;;;;;5012321;28;20028;-46
2022/04/28 10:14:08;;;;;;;3.35;1.58;;;;;;;;;;5012483;28;20503;-46
2022/04/28 10:16:35;;;;;;;3.30;1.60;;;;;;;;;;5012556;28;20556;-47
2022/04/28 10:19:10;;;;;;;2.72;1.52;;;;;;;;;;5012220;28;20109;-46
2022/04/28 10:21:59;;;;;;;4.00;1.73;;;;;;;;;;4994645;28;20069;-46
2022/04/28 10:33:02;;;;;;;2.88;1.30;;;;;;;;;;5012256;28;20057;-46
2022/04/28 10:35:54;;;;;;;3.55;1.52;;;;;;;;;;5011569;28;20061;-47
2022/04/28 10:38:21;;;;;;;2.78;1.50;;;;;;;;;;5012264;28;20403;-47
2022/04/28 10:40:59;;;;;;;2.58;1.55;;;;;;;;;;5011149;28;20030;-48
2022/04/28 10:43:28;;;;;;;2.38;1.45;;;;;;;;;;5012401;28;20488;-47
2022/04/28 10:45:55;;;;;;;5.05;1.35;;;;;;;;;;5011813;28;20034;-46
2022/04/28 10:48:29;;;;;;;3.65;1.45;;;;;;;;;;5013535;28;20018;-47
2022/04/28 10:51:00;;;;;;;3.50;1.40;;;;;;;;;;5011654;28;20026;-48
2022/04/28 10:53:27;;;;;;;4.65;1.40;;;;;;;;;;5011334;28;20034;-46
2022/04/28 10:55:55;;;;;;;3.78;1.40;;;;;;;;;;5012379;28;20033;-46
2022/04/28 10:58:25;;;;;;;4.55;1.73;;;;;;;;;;4993945;28;20034;-46
2022/04/28 11:00:53;;;;;;;4.50;1.20;;;;;;;;;;5011454;28;20156;-47
2022/04/28 11:03:40;;;;;;;5.45;1.20;;;;;;;;;;5011668;28;20041;-46
2022/04/28 11:06:14;;;;;;;4.38;1.65;;;;;;;;;;5012065;28;20076;-46
2022/04/28 11:08:51;;;;;;;2.83;1.20;;;;;;;;;;5029713;28;20082;-46
2022/04/28 11:11:18;;;;;;;2.75;1.23;;;;;;;;;;5015389;28;20030;-48
2022/04/28 11:13:49;;;;;;;5.07;1.17;;;;;;;;;;5012742;28;20034;-44
2022/04/28 11:16:16;;;;;;;5.20;1.63;;;;;;;;;;5033503;28;20037;-47
2022/04/28 11:18:44;;;;;;;4.15;1.40;;;;;;;;;;5036422;28;20032;-47
2022/04/28 11:21:11;;;;;;;3.47;1.10;;;;;;;;;;5054997;28;20033;-47
2022/04/28 11:23:41;;;;;;;5.47;1.52;;;;;;;;;;5054912;28;20175;-47
2022/04/28 11:26:09;;;;;;;3.63;1.27;;;;;;;;;;5054709;28;20494;-47
2022/04/28 11:28:37;;;;;;;2.00;1.08;;;;;;;;;;5055152;28;20039;-47
2022/04/28 11:31:22;;;;;;;4.60;1.60;;;;;;;;;;5054343;28;20115;-46
2022/04/28 11:33:50;;;;;;;5.82;1.60;;;;;;;;;;5054733;28;20403;-47
2022/04/28 11:36:18;;;;;;;3.15;1.40;;;;;;;;;;5054274;28;20037;-47
2022/04/28 11:38:50;;;;;;;4.63;1.30;;;;;;;;;;5024788;28;20029;-48
2022/04/28 11:41:17;;;;;;;2.67;1.10;;;;;;;;;;5023124;28;20030;-48
2022/04/28 11:43:44;;;;;;;2.70;1.23;;;;;;;;;;5022483;28;20032;-47
2022/04/28 11:46:14;;;;;;;2.55;1.08;;;;;;;;;;5014901;28;20041;-47
2022/04/28 11:48:41;;;;;;;3.38;1.20;;;;;;;;;;5014890;28;20597;-47
2022/04/28 11:51:08;;;;;;;3.42;1.30;;;;;;;;;;5019461;28;20033;-47
2022/04/28 11:53:42;;;;;;;5.35;1.27;;;;;;;;;;5020225;28;20138;-46
2022/04/28 11:56:19;;;;;;;3.63;1.13;;;;;;;;;;5027386;28;20026;-49
2022/04/28 11:58:52;;;;;;;4.57;1.20;;;;;;;;;;5032027;28;20033;-46
2022/04/28 12:01:21;;;;;;;3.53;1.15;;;;;;;;;;5017613;28;20126;-47
2022/04/28 12:03:53;;;;;;;2.90;1.17;;;;;;;;;;5013715;28;20116;-46
2022/04/28 12:06:20;;;;;;;4.03;1.30;;;;;;;;;;5013720;28;20037;-46
2022/04/28 12:08:48;;;;;;;3.38;1.50;;;;;;;;;;5014699;28;20064;-46
2022/04/28 12:14:25;;;;;;;6.88;1.40;;;;;;;;;;4950898;29;20047;-46
2022/04/28 12:19:59;;;;;;;3.75;1.25;;;;;;;;;;5022866;28;20115;-47
2022/04/28 12:22:31;;;;;;;3.42;1.40;;;;;;;;;;5013445;28;20158;-47
2022/04/28 12:25:11;;;;;;;9.10;1.70;;;;;;;;;;5024347;28;20098;-46
2022/04/28 12:27:44;;;;;;;3.75;1.60;;;;;;;;;;5030440;28;20384;-46
2022/04/28 12:30:13;;;;;;;7.30;1.52;;;;;;;;;;5021766;28;20045;-44
2022/04/28 12:32:44;;;;;;;7.10;1.80;;;;;;;;;;5018801;28;20446;-47
2022/04/28 12:35:20;;;;;;;3.63;1.67;;;;;;;;;;5015614;28;20040;-47
2022/04/28 12:37:47;;;;;;;6.97;1.55;;;;;;;;;;5028741;28;20030;-48
2022/04/28 12:40:22;;;;;;;3.55;1.55;;;;;;;;;;5019266;28;20116;-47
2022/04/28 12:42:50;;;;;;;8.02;1.65;;;;;;;;;;5013027;28;20399;-46
2022/04/28 12:45:34;;;;;;;5.00;2.33;;;;;;;;;;5014189;28;20026;-47
2022/04/28 12:48:01;;;;;;;7.78;2.50;;;;;;;;;;5020095;28;20554;-47
2022/04/28 12:50:28;;;;;;;4.22;2.50;;;;;;;;;;5013964;28;20033;-46
2022/04/28 12:52:55;;;;;;;13.23;2.58;;;;;;;;;;5020387;28;20034;-47
2022/04/28 12:55:22;;;;;;;14.43;2.42;;;;;;;;;;5016967;28;20050;-45
2022/04/28 12:57:51;;;;;;;8.32;2.45;;;;;;;;;;5019079;28;20033;-47
2022/04/28 13:00:18;;;;;;;6.43;2.00;;;;;;;;;;5022645;28;20085;-46
2022/04/28 13:02:47;;;;;;;9.63;2.20;;;;;;;;;;5026622;28;20117;-46
2022/04/28 13:05:15;;;;;;;7.00;2.30;;;;;;;;;;5011999;28;20042;-49
2022/04/28 13:07:43;;;;;;;12.50;2.20;;;;;;;;;;5012344;28;20033;-46
2022/04/28 13:10:15;;;;;;;6.20;2.10;;;;;;;;;;5013226;28;20033;-47
2022/04/28 13:12:42;;;;;;;5.47;2.20;;;;;;;;;;5012479;28;20034;-48
2022/04/28 13:15:10;;;;;;;6.88;2.00;;;;;;;;;;5015163;28;20030;-49
2022/04/28 13:17:37;;;;;;;7.03;2.33;;;;;;;;;;5020474;28;20028;-47
2022/04/28 13:20:05;;;;;;;4.47;1.90;;;;;;;;;;5021710;28;20117;-48
2022/04/28 13:22:32;;;;;;;6.35;1.92;;;;;;;;;;5018683;28;20120;-48
2022/04/28 13:25:00;;;;;;;6.95;2.10;;;;;;;;;;5030277;28;20032;-45
2022/04/28 13:27:28;;;;;;;6.60;1.80;;;;;;;;;;5031435;28;20037;-47
2022/04/28 13:29:55;;;;;;;3.70;1.55;;;;;;;;;;5031842;28;20021;-46
2022/04/28 13:32:22;;;;;;;8.73;1.92;;;;;;;;;;5032523;28;20053;-47
2022/04/28 13:34:49;;;;;;;4.15;1.90;;;;;;;;;;4995805;28;20041;-52
2022/04/28 13:37:16;;;;;;;3.95;1.40;;;;;;;;;;5010504;28;20029;-50
2022/04/28 13:39:44;;;;;;;3.90;1.63;;;;;;;;;;5012441;28;20026;-43
2022/04/28 13:42:11;;;;;;;7.65;1.80;;;;;;;;;;5011875;28;20194;-47
2022/04/28 13:44:39;;;;;;;8.02;2.10;;;;;;;;;;5009568;28;20162;-47
2022/04/28 13:47:07;;;;;;;5.25;1.63;;;;;;;;;;5011834;28;20052;-47
2022/04/28 13:49:34;;;;;;;8.93;1.50;;;;;;;;;;5021668;28;20048;-47
2022/04/28 13:52:01;;;;;;;7.03;1.70;;;;;;;;;;5033994;28;20116;-51
2022/04/28 13:54:28;;;;;;;7.63;1.60;;;;;;;;;;5049998;28;20052;-46
2022/04/28 13:56:56;;;;;;;5.85;1.75;;;;;;;;;;5051138;28;20055;-47
2022/04/28 13:59:23;;;;;;;7.70;1.40;;;;;;;;;;5049395;28;20120;-46
2022/04/28 14:01:50;;;;;;;5.10;1.50;;;;;;;;;;5050799;28;20429;-47
2022/04/28 14:04:19;;;;;;;5.47;1.48;;;;;;;;;;5050375;28;20128;-46
2022/04/28 14:06:46;;;;;;;4.25;1.42;;;;;;;;;;5050833;28;20056;-47
2022/04/28 14:09:13;;;;;;;6.53;1.80;;;;;;;;;;5050397;28;20025;-48
2022/04/28 14:11:40;;;;;;;7.85;1.60;;;;;;;;;;5049644;28;20021;-46
2022/04/28 14:14:07;;;;;;;10.38;1.75;;;;;;;;;;5050221;28;20033;-43
2022/04/28 14:16:34;;;;;;;9.73;1.60;;;;;;;;;;5050581;28;20390;-47
2022/04/28 14:19:02;;;;;;;9.40;1.52;;;;;;;;;;5050443;28;20561;-47
2022/04/28 14:21:32;;;;;;;7.40;1.50;;;;;;;;;;5049620;28;20065;-47
2022/04/28 14:23:59;;;;;;;6.15;1.48;;;;;;;;;;5050079;28;20040;-48
2022/04/28 14:26:26;;;;;;;8.68;1.70;;;;;;;;;;5050908;28;20035;-43
2022/04/28 14:28:53;;;;;;;4.70;1.50;;;;;;;;;;5050467;28;20025;-42
2022/04/28 14:31:20;;;;;;;4.85;1.50;;;;;;;;;;5049445;28;20021;-47
2022/04/28 14:33:46;;;;;;;8.52;1.40;;;;;;;;;;5050071;28;20057;-44
2022/04/28 14:36:13;;;;;;;12.85;1.80;;;;;;;;;;5050569;28;20033;-44
2022/04/28 14:38:41;;;;;;;13.85;1.60;;;;;;;;;;5051020;28;20053;-45
2022/04/28 14:41:08;;;;;;;7.13;1.33;;;;;;;;;;5049773;28;20037;-43
2022/04/28 14:43:35;;;;;;;8.35;1.60;;;;;;;;;;5049187;28;20024;-47
2022/04/28 14:46:02;;;;;;;7.68;1.15;;;;;;;;;;5050102;28;20035;-49
2022/04/28 14:48:28;;;;;;;5.93;1.33;;;;;;;;;;5052683;28;20032;-46
2022/04/28 14:53:41;;;;;;;8.88;1.30;;;;;;;;;;5053828;28;20040;-47
2022/04/28 14:56:08;;;;;;;6.55;1.25;;;;;;;;;;5052680;28;20036;-46
2022/04/28 14:58:37;;;;;;;4.97;1.52;;;;;;;;;;5004446;28;20026;-47
2022/04/28 15:01:04;;;;;;;8.07;2.25;;;;;;;;;;5015145;28;20065;-46
2022/04/28 15:03:35;;;;;;;9.82;2.22;;;;;;;;;;5014310;28;20058;-49
2022/04/28 15:06:02;;;;;;;8.75;2.30;;;;;;;;;;5013859;28;20112;-48
2022/04/28 15:08:29;;;;;;;7.22;2.53;;;;;;;;;;5014060;28;20026;-46
2022/04/28 15:10:56;;;;;;;13.07;2.30;;;;;;;;;;5014303;28;20113;-46
2022/04/28 15:13:23;;;;;;;9.48;2.53;;;;;;;;;;5018821;28;20029;-47
2022/04/28 15:15:50;;;;;;;10.40;2.35;;;;;;;;;;5029610;28;20041;-47
2022/04/28 15:18:17;;;;;;;13.23;2.70;;;;;;;;;;5017743;28;20032;-44